sensor_id;sensor_type;location;lat;lon;timestamp;P1;durP1;ratioP1;P2;durP2;ratioP2
51692;SDS011;37777;53.066;21.638;2023-07-13T00:06:44;21.27;;;19.08;;
51692;SDS011;37777;53.066;21.638;2023-07-13T00:13:47;20.52;;;18.50;;
51692;SDS011;37777;53.066;21.638;2023-07-13T00:20:49;19.80;;;17.90;;
51692;SDS011;37777;53.066;21.638;2023-07-13T00:27:51;18.67;;;16.88;;
51692;SDS011;37777;53.066;21.638;2023-07-13T00:34:53;19.17;;;17.40;;
51692;SDS011;37777;53.066;21.638;2023-07-13T00:41:55;20.75;;;18.67;;
51692;SDS011;37777;53.066;21.638;2023-07-13T00:48:59;18.63;;;16.80;;
51692;SDS011;37777;53.066;21.638;2023-07-13T00:56:06;19.13;;;17.23;;
51692;SDS011;37777;53.066;21.638;2023-07-13T01:03:08;20.92;;;17.38;;
51692;SDS011;37777;53.066;21.638;2023-07-13T01:10:12;22.95;;;18.88;;
51692;SDS011;37777;53.066;21.638;2023-07-13T01:17:14;20.23;;;17.25;;
51692;SDS011;37777;53.066;21.638;2023-07-13T01:24:17;15.65;;;14.35;;
51692;SDS011;37777;53.066;21.638;2023-07-13T01:31:19;15.27;;;13.93;;
51692;SDS011;37777;53.066;21.638;2023-07-13T01:38:22;16.90;;;15.45;;
51692;SDS011;37777;53.066;21.638;2023-07-13T01:45:24;19.80;;;17.77;;
51692;SDS011;37777;53.066;21.638;2023-07-13T01:52:26;19.30;;;17.50;;
51692;SDS011;37777;53.066;21.638;2023-07-13T01:59:28;21.67;;;19.42;;
51692;SDS011;37777;53.066;21.638;2023-07-13T02:06:30;22.63;;;19.15;;
51692;SDS011;37777;53.066;21.638;2023-07-13T02:13:32;21.02;;;18.95;;
51692;SDS011;37777;53.066;21.638;2023-07-13T02:20:34;20.65;;;18.58;;
51692;SDS011;37777;53.066;21.638;2023-07-13T02:27:36;20.42;;;18.42;;
51692;SDS011;37777;53.066;21.638;2023-07-13T02:34:40;20.30;;;18.38;;
51692;SDS011;37777;53.066;21.638;2023-07-13T02:41:44;20.77;;;18.65;;
51692;SDS011;37777;53.066;21.638;2023-07-13T02:48:46;19.58;;;17.65;;
51692;SDS011;37777;53.066;21.638;2023-07-13T02:55:48;17.63;;;15.85;;
51692;SDS011;37777;53.066;21.638;2023-07-13T03:02:50;16.48;;;15.10;;
51692;SDS011;37777;53.066;21.638;2023-07-13T03:09:56;19.52;;;17.73;;
51692;SDS011;37777;53.066;21.638;2023-07-13T03:16:58;17.13;;;15.35;;
51692;SDS011;37777;53.066;21.638;2023-07-13T03:24:00;17.42;;;16.02;;
51692;SDS011;37777;53.066;21.638;2023-07-13T03:31:03;19.00;;;17.40;;
51692;SDS011;37777;53.066;21.638;2023-07-13T03:38:10;18.60;;;17.00;;
51692;SDS011;37777;53.066;21.638;2023-07-13T03:45:12;19.33;;;17.63;;
51692;SDS011;37777;53.066;21.638;2023-07-13T03:52:14;19.80;;;18.02;;
51692;SDS011;37777;53.066;21.638;2023-07-13T03:59:17;19.77;;;17.90;;
51692;SDS011;37777;53.066;21.638;2023-07-13T04:06:20;19.85;;;18.10;;
51692;SDS011;37777;53.066;21.638;2023-07-13T04:13:25;20.15;;;18.02;;
51692;SDS011;37777;53.066;21.638;2023-07-13T04:20:28;19.65;;;17.58;;
51692;SDS011;37777;53.066;21.638;2023-07-13T04:27:30;21.77;;;18.73;;
51692;SDS011;37777;53.066;21.638;2023-07-13T04:34:32;18.10;;;16.40;;
51692;SDS011;37777;53.066;21.638;2023-07-13T04:41:34;19.65;;;17.83;;
51692;SDS011;37777;53.066;21.638;2023-07-13T04:48:36;28.98;;;18.55;;
51692;SDS011;37777;53.066;21.638;2023-07-13T04:55:39;22.75;;;20.02;;
51692;SDS011;37777;53.066;21.638;2023-07-13T05:02:45;23.75;;;20.02;;
51692;SDS011;37777;53.066;21.638;2023-07-13T05:09:47;23.50;;;20.92;;
51692;SDS011;37777;53.066;21.638;2023-07-13T05:16:50;20.77;;;18.77;;
51692;SDS011;37777;53.066;21.638;2023-07-13T05:23:52;22.77;;;20.38;;
51692;SDS011;37777;53.066;21.638;2023-07-13T05:30:54;23.08;;;20.63;;
51692;SDS011;37777;53.066;21.638;2023-07-13T05:37:56;23.10;;;20.52;;
51692;SDS011;37777;53.066;21.638;2023-07-13T05:44:59;22.00;;;19.55;;
51692;SDS011;37777;53.066;21.638;2023-07-13T05:52:01;26.48;;;20.08;;
51692;SDS011;37777;53.066;21.638;2023-07-13T05:59:03;21.52;;;19.42;;
51692;SDS011;37777;53.066;21.638;2023-07-13T06:06:05;21.38;;;19.10;;
51692;SDS011;37777;53.066;21.638;2023-07-13T06:13:08;23.42;;;18.90;;
51692;SDS011;37777;53.066;21.638;2023-07-13T06:20:10;21.70;;;18.65;;
51692;SDS011;37777;53.066;21.638;2023-07-13T06:27:12;25.42;;;20.13;;
51692;SDS011;37777;53.066;21.638;2023-07-13T06:34:14;24.65;;;18.35;;
51692;SDS011;37777;53.066;21.638;2023-07-13T06:41:16;26.52;;;18.10;;
51692;SDS011;37777;53.066;21.638;2023-07-13T06:48:18;30.65;;;21.15;;
51692;SDS011;37777;53.066;21.638;2023-07-13T06:55:21;24.17;;;18.48;;
51692;SDS011;37777;53.066;21.638;2023-07-13T07:02:23;20.73;;;15.75;;
51692;SDS011;37777;53.066;21.638;2023-07-13T07:09:25;15.95;;;14.40;;
51692;SDS011;37777;53.066;21.638;2023-07-13T07:16:28;14.32;;;13.13;;
51692;SDS011;37777;53.066;21.638;2023-07-13T07:23:30;15.60;;;14.07;;
51692;SDS011;37777;53.066;21.638;2023-07-13T07:30:32;15.30;;;13.73;;
51692;SDS011;37777;53.066;21.638;2023-07-13T07:37:37;16.88;;;15.13;;
51692;SDS011;37777;53.066;21.638;2023-07-13T07:44:41;17.90;;;14.77;;
51692;SDS011;37777;53.066;21.638;2023-07-13T07:51:43;16.75;;;15.00;;
51692;SDS011;37777;53.066;21.638;2023-07-13T07:58:46;16.25;;;14.63;;
51692;SDS011;37777;53.066;21.638;2023-07-13T08:05:53;17.00;;;14.27;;
51692;SDS011;37777;53.066;21.638;2023-07-13T08:12:58;15.47;;;13.90;;
51692;SDS011;37777;53.066;21.638;2023-07-13T08:20:12;14.65;;;13.30;;
51692;SDS011;37777;53.066;21.638;2023-07-13T08:27:14;13.77;;;12.57;;
51692;SDS011;37777;53.066;21.638;2023-07-13T08:34:16;13.25;;;12.05;;
51692;SDS011;37777;53.066;21.638;2023-07-13T08:41:18;11.75;;;10.85;;
51692;SDS011;37777;53.066;21.638;2023-07-13T08:48:32;11.95;;;11.02;;
51692;SDS011;37777;53.066;21.638;2023-07-13T08:55:37;11.98;;;11.07;;
51692;SDS011;37777;53.066;21.638;2023-07-13T09:02:42;11.57;;;10.73;;
51692;SDS011;37777;53.066;21.638;2023-07-13T09:31:57;11.95;;;10.73;;
51692;SDS011;37777;53.066;21.638;2023-07-13T09:39:10;11.40;;;10.70;;
51692;SDS011;37777;53.066;21.638;2023-07-13T09:46:44;12.50;;;11.27;;
51692;SDS011;37777;53.066;21.638;2023-07-13T09:53:54;12.02;;;11.13;;
51692;SDS011;37777;53.066;21.638;2023-07-13T10:01:00;12.18;;;11.18;;
51692;SDS011;37777;53.066;21.638;2023-07-13T10:08:26;12.25;;;11.25;;
51692;SDS011;37777;53.066;21.638;2023-07-13T10:15:32;11.75;;;10.95;;
51692;SDS011;37777;53.066;21.638;2023-07-13T10:37:18;11.68;;;10.77;;
51692;SDS011;37777;53.066;21.638;2023-07-13T10:44:24;11.38;;;10.35;;
51692;SDS011;37777;53.066;21.638;2023-07-13T10:51:30;12.68;;;11.60;;
51692;SDS011;37777;53.066;21.638;2023-07-13T10:58:34;11.82;;;10.88;;
51692;SDS011;37777;53.066;21.638;2023-07-13T11:05:43;12.25;;;11.25;;
51692;SDS011;37777;53.066;21.638;2023-07-13T11:12:53;12.25;;;11.30;;
51692;SDS011;37777;53.066;21.638;2023-07-13T11:20:30;12.40;;;11.50;;
51692;SDS011;37777;53.066;21.638;2023-07-13T11:27:36;11.82;;;10.93;;
51692;SDS011;37777;53.066;21.638;2023-07-13T11:34:41;11.63;;;10.82;;
51692;SDS011;37777;53.066;21.638;2023-07-13T11:41:44;11.90;;;11.00;;
51692;SDS011;37777;53.066;21.638;2023-07-13T11:48:51;12.00;;;10.75;;
51692;SDS011;37777;53.066;21.638;2023-07-13T11:55:54;11.75;;;10.85;;
51692;SDS011;37777;53.066;21.638;2023-07-13T12:02:57;12.82;;;11.43;;
51692;SDS011;37777;53.066;21.638;2023-07-13T12:10:03;12.70;;;11.45;;
51692;SDS011;37777;53.066;21.638;2023-07-13T12:17:19;11.88;;;10.98;;
51692;SDS011;37777;53.066;21.638;2023-07-13T12:24:24;11.25;;;10.30;;
51692;SDS011;37777;53.066;21.638;2023-07-13T12:31:37;12.27;;;11.27;;
51692;SDS011;37777;53.066;21.638;2023-07-13T12:38:45;12.02;;;11.23;;
51692;SDS011;37777;53.066;21.638;2023-07-13T12:45:55;12.40;;;11.50;;
51692;SDS011;37777;53.066;21.638;2023-07-13T12:53:02;12.55;;;11.48;;
51692;SDS011;37777;53.066;21.638;2023-07-13T13:00:13;12.03;;;11.03;;
51692;SDS011;37777;53.066;21.638;2023-07-13T13:07:26;12.15;;;10.95;;
51692;SDS011;37777;53.066;21.638;2023-07-13T13:14:28;12.10;;;11.10;;
51692;SDS011;37777;53.066;21.638;2023-07-13T13:21:30;11.80;;;10.90;;
51692;SDS011;37777;53.066;21.638;2023-07-13T13:28:34;11.90;;;10.95;;
51692;SDS011;37777;53.066;21.638;2023-07-13T13:35:36;13.57;;;12.57;;
51692;SDS011;37777;53.066;21.638;2023-07-13T13:42:38;12.45;;;11.35;;
51692;SDS011;37777;53.066;21.638;2023-07-13T13:49:40;14.35;;;12.20;;
51692;SDS011;37777;53.066;21.638;2023-07-13T13:56:43;13.15;;;11.90;;
51692;SDS011;37777;53.066;21.638;2023-07-13T14:03:46;12.50;;;11.60;;
51692;SDS011;37777;53.066;21.638;2023-07-13T14:10:51;13.50;;;12.25;;
51692;SDS011;37777;53.066;21.638;2023-07-13T14:17:57;13.03;;;12.13;;
51692;SDS011;37777;53.066;21.638;2023-07-13T14:24:59;14.93;;;13.43;;
51692;SDS011;37777;53.066;21.638;2023-07-13T14:32:02;14.10;;;13.10;;
51692;SDS011;37777;53.066;21.638;2023-07-13T14:39:10;14.25;;;13.15;;
51692;SDS011;37777;53.066;21.638;2023-07-13T14:46:33;14.40;;;13.25;;
51692;SDS011;37777;53.066;21.638;2023-07-13T14:53:36;13.15;;;11.75;;
51692;SDS011;37777;53.066;21.638;2023-07-13T15:00:40;14.40;;;13.20;;
51692;SDS011;37777;53.066;21.638;2023-07-13T15:07:43;14.52;;;13.25;;
51692;SDS011;37777;53.066;21.638;2023-07-13T15:14:45;14.93;;;12.40;;
51692;SDS011;37777;53.066;21.638;2023-07-13T15:21:47;13.90;;;12.70;;
51692;SDS011;37777;53.066;21.638;2023-07-13T15:28:49;13.18;;;12.18;;
51692;SDS011;37777;53.066;21.638;2023-07-13T15:35:51;15.57;;;13.98;;
51692;SDS011;37777;53.066;21.638;2023-07-13T15:42:55;13.63;;;12.18;;
51692;SDS011;37777;53.066;21.638;2023-07-13T15:49:57;12.45;;;11.48;;
51692;SDS011;37777;53.066;21.638;2023-07-13T15:57:00;12.95;;;11.77;;
51692;SDS011;37777;53.066;21.638;2023-07-13T16:04:03;12.57;;;11.23;;
51692;SDS011;37777;53.066;21.638;2023-07-13T16:11:10;15.50;;;13.32;;
51692;SDS011;37777;53.066;21.638;2023-07-13T16:18:18;12.13;;;10.98;;
51692;SDS011;37777;53.066;21.638;2023-07-13T16:25:22;12.43;;;11.43;;
51692;SDS011;37777;53.066;21.638;2023-07-13T16:32:26;11.32;;;10.43;;
51692;SDS011;37777;53.066;21.638;2023-07-13T16:39:30;11.57;;;10.57;;
51692;SDS011;37777;53.066;21.638;2023-07-13T16:46:35;11.63;;;10.68;;
51692;SDS011;37777;53.066;21.638;2023-07-13T16:53:37;12.45;;;11.45;;
51692;SDS011;37777;53.066;21.638;2023-07-13T17:00:43;12.70;;;11.55;;
51692;SDS011;37777;53.066;21.638;2023-07-13T17:07:45;12.02;;;11.02;;
51692;SDS011;37777;53.066;21.638;2023-07-13T17:14:48;13.05;;;11.93;;
51692;SDS011;37777;53.066;21.638;2023-07-13T17:21:51;14.40;;;13.10;;
51692;SDS011;37777;53.066;21.638;2023-07-13T17:28:53;13.82;;;12.60;;
51692;SDS011;37777;53.066;21.638;2023-07-13T17:35:56;13.10;;;12.00;;
51692;SDS011;37777;53.066;21.638;2023-07-13T17:43:01;12.25;;;11.15;;
51692;SDS011;37777;53.066;21.638;2023-07-13T17:50:14;12.60;;;11.60;;
51692;SDS011;37777;53.066;21.638;2023-07-13T17:57:19;13.10;;;12.07;;
51692;SDS011;37777;53.066;21.638;2023-07-13T18:04:22;14.02;;;12.55;;
51692;SDS011;37777;53.066;21.638;2023-07-13T18:11:25;11.45;;;10.55;;
51692;SDS011;37777;53.066;21.638;2023-07-13T18:18:31;12.52;;;11.35;;
51692;SDS011;37777;53.066;21.638;2023-07-13T18:25:37;13.52;;;12.05;;
51692;SDS011;37777;53.066;21.638;2023-07-13T18:32:40;12.77;;;11.77;;
51692;SDS011;37777;53.066;21.638;2023-07-13T18:39:48;12.30;;;11.13;;
51692;SDS011;37777;53.066;21.638;2023-07-13T18:46:53;12.43;;;11.20;;
51692;SDS011;37777;53.066;21.638;2023-07-13T18:53:55;12.73;;;11.73;;
51692;SDS011;37777;53.066;21.638;2023-07-13T19:01:00;12.10;;;11.05;;
51692;SDS011;37777;53.066;21.638;2023-07-13T19:08:09;15.85;;;12.50;;
51692;SDS011;37777;53.066;21.638;2023-07-13T19:15:24;12.68;;;11.60;;
51692;SDS011;37777;53.066;21.638;2023-07-13T19:22:28;12.63;;;11.43;;
51692;SDS011;37777;53.066;21.638;2023-07-13T19:29:31;12.93;;;11.73;;
51692;SDS011;37777;53.066;21.638;2023-07-13T19:36:38;13.05;;;11.80;;
51692;SDS011;37777;53.066;21.638;2023-07-13T19:43:41;13.15;;;12.05;;
51692;SDS011;37777;53.066;21.638;2023-07-13T19:50:48;13.57;;;12.18;;
51692;SDS011;37777;53.066;21.638;2023-07-13T19:57:51;13.93;;;12.18;;
51692;SDS011;37777;53.066;21.638;2023-07-13T20:04:55;13.85;;;12.68;;
51692;SDS011;37777;53.066;21.638;2023-07-13T20:12:04;12.15;;;11.13;;
51692;SDS011;37777;53.066;21.638;2023-07-13T20:19:16;13.07;;;11.77;;
51692;SDS011;37777;53.066;21.638;2023-07-13T20:26:19;13.10;;;11.77;;
51692;SDS011;37777;53.066;21.638;2023-07-13T20:33:24;14.20;;;11.15;;
51692;SDS011;37777;53.066;21.638;2023-07-13T20:40:30;12.55;;;11.52;;
51692;SDS011;37777;53.066;21.638;2023-07-13T20:47:33;12.50;;;11.40;;
51692;SDS011;37777;53.066;21.638;2023-07-13T20:54:36;12.85;;;11.65;;
51692;SDS011;37777;53.066;21.638;2023-07-13T21:01:38;15.32;;;11.63;;
51692;SDS011;37777;53.066;21.638;2023-07-13T21:08:43;15.82;;;14.13;;
51692;SDS011;37777;53.066;21.638;2023-07-13T21:15:46;16.90;;;15.10;;
51692;SDS011;37777;53.066;21.638;2023-07-13T21:22:48;15.23;;;13.73;;
51692;SDS011;37777;53.066;21.638;2023-07-13T21:29:51;17.98;;;14.57;;
51692;SDS011;37777;53.066;21.638;2023-07-13T21:36:55;13.88;;;12.45;;
51692;SDS011;37777;53.066;21.638;2023-07-13T21:44:00;13.70;;;12.30;;
51692;SDS011;37777;53.066;21.638;2023-07-13T21:58:26;13.13;;;11.93;;
51692;SDS011;37777;53.066;21.638;2023-07-13T22:05:29;12.50;;;11.30;;
51692;SDS011;37777;53.066;21.638;2023-07-13T22:12:31;13.05;;;11.93;;
51692;SDS011;37777;53.066;21.638;2023-07-13T22:19:33;13.07;;;11.73;;
51692;SDS011;37777;53.066;21.638;2023-07-13T22:26:35;11.63;;;10.73;;
51692;SDS011;37777;53.066;21.638;2023-07-13T22:33:38;11.68;;;10.70;;
51692;SDS011;37777;53.066;21.638;2023-07-13T22:40:40;13.07;;;11.93;;
51692;SDS011;37777;53.066;21.638;2023-07-13T22:47:42;13.95;;;12.45;;
51692;SDS011;37777;53.066;21.638;2023-07-13T22:54:44;16.60;;;12.43;;
51692;SDS011;37777;53.066;21.638;2023-07-13T23:01:47;16.08;;;13.02;;
51692;SDS011;37777;53.066;21.638;2023-07-13T23:08:50;13.02;;;11.68;;
51692;SDS011;37777;53.066;21.638;2023-07-13T23:15:52;13.63;;;11.95;;
51692;SDS011;37777;53.066;21.638;2023-07-13T23:22:54;14.02;;;12.55;;
51692;SDS011;37777;53.066;21.638;2023-07-13T23:30:00;15.93;;;12.50;;
51692;SDS011;37777;53.066;21.638;2023-07-13T23:37:02;13.35;;;11.98;;
51692;SDS011;37777;53.066;21.638;2023-07-13T23:44:12;14.20;;;12.70;;
51692;SDS011;37777;53.066;21.638;2023-07-13T23:51:16;14.57;;;13.25;;
51692;SDS011;37777;53.066;21.638;2023-07-13T23:58:20;15.13;;;13.57;;
